Time;durP1;ratioP1;P1;durP2;ratioP2;P2;SDS_P1;SDS_P2;PMS_P1;PMS_P2;Temp;Humidity;BMP_temperature;BMP_pressure;BME280_temperature;BME280_humidity;BME280_pressure;Samples;Min_cycle;Max_cycle;Signal;HPM_P1;HPM_P2
2022/12/26 00:01:39;;;;;;;1.27;0.80;;;8.00;99.90;;;;;;5014364;28;20041;-83
2022/12/26 00:04:06;;;;;;;0.73;0.70;;;8.00;99.90;;;;;;5012283;28;21667;-86
2022/12/26 00:06:32;;;;;;;1.10;0.75;;;8.10;99.90;;;;;;5001788;28;20057;-84
2022/12/26 00:08:59;;;;;;;0.90;0.90;;;8.10;99.90;;;;;;5008343;28;20767;-84
2022/12/26 00:11:25;;;;;;;0.47;0.47;;;8.10;99.90;;;;;;5002932;28;20049;-84
2022/12/26 00:14:05;;;;;;;0.52;0.52;;;8.10;99.90;;;;;;5023778;28;20151;-84
2022/12/26 00:16:31;;;;;;;2.15;0.80;;;8.10;99.90;;;;;;5028131;28;21557;-84
2022/12/26 00:18:56;;;;;;;0.47;0.47;;;8.10;99.90;;;;;;5029660;28;20095;-85
2022/12/26 00:21:25;;;;;;;1.10;1.10;;;8.10;99.90;;;;;;5029069;28;20123;-84
2022/12/26 00:23:52;;;;;;;0.40;0.40;;;8.10;99.90;;;;;;5021943;28;20150;-84
2022/12/26 00:26:20;;;;;;;1.13;1.13;;;8.10;99.90;;;;;;5012199;28;20089;-86
2022/12/26 00:28:46;;;;;;;0.70;0.70;;;8.10;99.90;;;;;;5003110;28;20057;-85
2022/12/26 00:31:19;;;;;;;1.08;1.08;;;8.10;99.90;;;;;;5035326;28;20057;-85
2022/12/26 00:33:44;;;;;;;0.45;0.45;;;8.00;99.90;;;;;;5026865;28;20516;-86
2022/12/26 00:36:23;;;;;;;0.73;0.73;;;8.10;99.90;;;;;;5021402;28;20045;-86
2022/12/26 00:38:49;;;;;;;0.43;0.43;;;8.10;99.90;;;;;;5027526;28;20128;-85
2022/12/26 00:41:16;;;;;;;1.30;1.20;;;8.10;99.90;;;;;;4999865;28;20069;-83
2022/12/26 00:43:42;;;;;;;6.13;1.70;;;8.10;99.90;;;;;;5008397;28;20053;-83
2022/12/26 00:46:08;;;;;;;0.50;0.50;;;8.10;99.90;;;;;;5043763;28;20037;-83
2022/12/26 00:48:34;;;;;;;5.28;1.55;;;8.10;99.90;;;;;;5006047;28;20041;-84
2022/12/26 00:51:00;;;;;;;0.65;0.65;;;8.10;99.90;;;;;;5030709;28;20048;-83
2022/12/26 00:53:26;;;;;;;0.98;0.93;;;8.10;99.90;;;;;;5024661;28;20063;-87
2022/12/26 00:55:52;;;;;;;;;;;8.10;99.90;;;;;;5021940;28;20059;-84
2022/12/26 00:58:20;;;;;;;1.17;0.50;;;8.10;99.90;;;;;;5022833;28;19933;-84
2022/12/26 01:00:46;;;;;;;0.52;0.52;;;8.10;99.90;;;;;;5032489;28;20051;-85
2022/12/26 01:03:12;;;;;;;0.80;0.80;;;8.10;99.90;;;;;;5011321;28;20052;-84
2022/12/26 01:05:43;;;;;;;1.23;1.23;;;8.10;99.90;;;;;;5022977;28;20045;-83
2022/12/26 01:08:10;;;;;;;1.15;1.15;;;8.10;99.90;;;;;;5023870;28;20053;-84
2022/12/26 01:10:35;;;;;;;;;;;8.10;99.90;;;;;;5027383;28;20061;-83
2022/12/26 01:13:01;;;;;;;0.60;0.60;;;8.10;99.90;;;;;;5012464;28;19928;-84
2022/12/26 01:15:27;;;;;;;0.40;0.40;;;8.10;99.90;;;;;;5001946;28;20172;-84
2022/12/26 01:17:52;;;;;;;1.05;0.85;;;8.10;99.90;;;;;;5053567;28;20060;-86
2022/12/26 01:20:18;;;;;;;1.77;1.67;;;8.10;99.90;;;;;;5011747;28;20053;-85
2022/12/26 01:22:44;;;;;;;0.50;0.50;;;8.10;99.90;;;;;;5024027;28;20049;-84
2022/12/26 01:25:10;;;;;;;0.50;0.50;;;8.20;99.90;;;;;;5008675;28;20045;-87
2022/12/26 01:27:36;;;;;;;0.85;0.85;;;8.20;99.90;;;;;;5040405;28;20072;-85
2022/12/26 01:30:03;;;;;;;1.42;1.38;;;8.10;99.90;;;;;;5044200;28;20041;-85
2022/12/26 01:32:29;;;;;;;1.42;1.42;;;8.20;99.90;;;;;;5041375;28;20044;-84
2022/12/26 01:34:55;;;;;;;1.23;1.23;;;8.10;99.90;;;;;;5032581;28;20057;-83
2022/12/26 01:37:24;;;;;;;0.60;0.60;;;8.10;99.90;;;;;;5003960;28;20048;-85
2022/12/26 01:39:51;;;;;;;0.60;0.60;;;8.10;99.90;;;;;;5021681;28;20094;-85
2022/12/26 01:42:20;;;;;;;0.73;0.73;;;8.20;99.90;;;;;;5027971;28;20055;-85
2022/12/26 01:45:04;;;;;;;2.40;2.30;;;8.10;99.90;;;;;;5010948;28;20053;-83
2022/12/26 01:47:47;;;;;;;2.13;2.03;;;8.20;99.90;;;;;;5027795;28;20063;-85
2022/12/26 01:50:32;;;;;;;0.70;0.70;;;8.20;99.90;;;;;;5052645;28;20079;-85
2022/12/26 01:53:17;;;;;;;1.52;1.42;;;8.20;99.90;;;;;;5016080;28;20569;-86
2022/12/26 01:55:48;;;;;;;1.65;0.63;;;8.20;99.90;;;;;;5007320;28;20056;-83
2022/12/26 01:58:20;;;;;;;0.63;0.63;;;8.20;99.90;;;;;;5023339;28;20048;-83
2022/12/26 02:00:47;;;;;;;0.40;0.40;;;8.20;99.90;;;;;;5029409;28;21391;-85
2022/12/26 02:05:59;;;;;;;1.05;0.80;;;8.20;99.90;;;;;;5028912;28;20045;-84
2022/12/26 02:08:30;;;;;;;0.60;0.60;;;8.20;99.90;;;;;;5020113;28;20049;-85
2022/12/26 02:11:07;;;;;;;1.40;1.33;;;8.20;99.90;;;;;;5019039;28;20056;-84
2022/12/26 02:13:35;;;;;;;0.77;0.77;;;8.80;99.90;;;;;;5024832;28;20165;-84
2022/12/26 02:16:06;;;;;;;0.73;0.73;;;8.20;99.90;;;;;;5026418;28;21413;-85
2022/12/26 02:18:32;;;;;;;0.30;0.30;;;8.10;99.90;;;;;;5003903;28;21386;-86
2022/12/26 02:21:07;;;;;;;0.50;0.50;;;8.10;99.90;;;;;;5005836;28;20083;-85
2022/12/26 02:24:31;;;;;;;0.32;0.32;;;8.20;99.90;;;;;;5023134;28;20049;-85
2022/12/26 02:27:10;;;;;;;0.50;0.50;;;8.10;99.90;;;;;;4924550;28;21033;-84
2022/12/26 02:30:29;;;;;;;0.50;0.50;;;8.20;99.90;;;;;;4947774;28;20058;-85
2022/12/26 02:33:16;;;;;;;0.35;0.35;;;8.20;99.90;;;;;;4921840;28;20142;-84
2022/12/26 02:35:54;;;;;;;;;;;8.10;99.90;;;;;;5020940;28;20057;-85
2022/12/26 02:38:31;;;;;;;0.50;0.50;;;8.20;99.90;;;;;;5032897;28;21655;-83
2022/12/26 02:41:19;;;;;;;0.60;0.60;;;8.10;99.90;;;;;;5025525;28;20147;-84
2022/12/26 02:47:26;;;;;;;0.50;0.50;;;8.20;99.90;;;;;;4975140;28;20052;-82
2022/12/26 03:14:22;;;;;;;0.50;0.50;;;8.20;99.90;;;;;;5024968;28;20072;-85
2022/12/26 03:19:57;;;;;;;0.55;0.55;;;8.20;99.90;;;;;;5036112;28;20049;-86
2022/12/26 03:22:49;;;;;;;1.30;1.30;;;8.20;99.90;;;;;;5030157;28;20052;-87
2022/12/26 03:28:24;;;;;;;2.45;2.35;;;8.30;99.90;;;;;;5036524;28;20061;-84
2022/12/26 03:30:51;;;;;;;0.60;0.60;;;8.30;99.90;;;;;;5040411;28;20435;-86
2022/12/26 03:36:24;;;;;;;0.70;0.70;;;8.30;99.90;;;;;;5042716;28;20511;-85
2022/12/26 03:39:12;;;;;;;0.82;0.77;;;8.30;99.90;;;;;;5019241;28;20053;-84
2022/12/26 04:20:23;;;;;;;0.93;0.93;;;8.50;99.90;;;;;;5034825;28;20049;-83
2022/12/26 04:45:58;;;;;;;2.35;2.15;;;8.60;99.90;;;;;;5041048;28;20136;-86
2022/12/26 04:51:08;;;;;;;0.80;0.80;;;8.60;99.90;;;;;;5043664;28;20103;-86
2022/12/26 04:53:34;;;;;;;0.75;0.75;;;8.60;99.90;;;;;;5044142;28;20070;-84
2022/12/26 04:55:59;;;;;;;2.13;1.92;;;8.50;99.90;;;;;;5045667;28;20049;-88
2022/12/26 04:58:25;;;;;;;3.92;1.38;;;8.60;99.90;;;;;;5040864;28;20080;-84
2022/12/26 05:00:51;;;;;;;1.33;0.77;;;8.60;99.90;;;;;;5011229;28;20404;-85
2022/12/26 05:11:33;;;;;;;1.42;1.38;;;8.60;99.90;;;;;;5029256;28;20059;-86
2022/12/26 05:13:59;;;;;;;3.60;1.35;;;8.60;99.90;;;;;;5035376;28;20087;-84
2022/12/26 05:30:20;;;;;;;1.02;0.73;;;8.60;99.90;;;;;;5041958;28;20049;-85
2022/12/26 05:35:32;;;;;;;1.15;1.05;;;8.60;99.90;;;;;;5029963;28;20084;-87
2022/12/26 05:37:58;;;;;;;1.35;1.35;;;8.60;99.90;;;;;;5039685;28;20053;-86
2022/12/26 05:40:24;;;;;;;0.43;0.43;;;8.70;99.90;;;;;;5037655;28;20064;-86
2022/12/26 05:42:49;;;;;;;0.65;0.65;;;8.60;99.90;;;;;;5024135;28;20045;-86
2022/12/26 05:45:15;;;;;;;0.90;0.90;;;8.60;99.90;;;;;;5044896;28;20052;-86
2022/12/26 05:47:41;;;;;;;1.80;1.58;;;8.60;99.90;;;;;;5016524;28;20052;-85
2022/12/26 05:50:07;;;;;;;0.70;0.70;;;8.60;99.90;;;;;;5031235;28;21847;-84
2022/12/26 05:52:32;;;;;;;2.20;1.73;;;8.50;99.90;;;;;;5026332;28;20945;-83
2022/12/26 05:54:58;;;;;;;2.22;2.13;;;8.60;99.90;;;;;;5025403;28;20055;-86
2022/12/26 05:57:24;;;;;;;0.60;0.60;;;8.60;99.90;;;;;;5019956;28;20063;-85
2022/12/26 05:59:49;;;;;;;0.75;0.75;;;8.60;99.90;;;;;;4994081;28;20186;-84
2022/12/26 06:02:15;;;;;;;1.88;1.77;;;8.50;99.90;;;;;;5007840;28;20436;-84
2022/12/26 06:04:41;;;;;;;1.23;1.23;;;8.50;99.90;;;;;;5012158;28;20184;-86
2022/12/26 06:07:06;;;;;;;0.57;0.57;;;8.50;99.90;;;;;;5018122;28;20049;-86
2022/12/26 06:09:32;;;;;;;1.20;0.95;;;8.60;99.90;;;;;;5002897;28;20053;-86
2022/12/26 06:11:58;;;;;;;0.77;0.77;;;8.50;99.90;;;;;;4975737;28;20483;-85
2022/12/26 06:14:24;;;;;;;4.65;3.40;;;8.50;99.90;;;;;;5017098;28;20051;-85
2022/12/26 06:16:49;;;;;;;3.05;2.75;;;8.50;99.90;;;;;;5023904;28;20132;-87
2022/12/26 06:19:15;;;;;;;2.17;1.98;;;8.50;99.90;;;;;;5018921;28;20025;-85
2022/12/26 06:21:41;;;;;;;1.17;1.17;;;8.50;99.90;;;;;;4993693;28;20045;-85
2022/12/26 06:24:07;;;;;;;1.05;1.02;;;8.50;99.90;;;;;;5027094;28;20489;-84
2022/12/26 06:26:32;;;;;;;1.10;1.00;;;8.50;99.90;;;;;;5005295;28;20080;-86
2022/12/26 06:28:58;;;;;;;2.17;1.38;;;8.50;99.90;;;;;;5027238;28;20096;-84
2022/12/26 06:31:24;;;;;;;0.85;0.85;;;8.50;99.90;;;;;;5026604;28;20060;-85
2022/12/26 06:33:54;;;;;;;0.60;0.60;;;8.50;99.90;;;;;;5026586;28;20055;-85
2022/12/26 06:36:22;;;;;;;1.52;1.00;;;8.50;99.90;;;;;;5012964;28;20045;-87
2022/12/26 06:38:48;;;;;;;2.90;2.70;;;8.50;99.90;;;;;;5024386;28;20053;-85
2022/12/26 06:41:15;;;;;;;;;;;8.50;99.90;;;;;;5020813;28;20045;-87
2022/12/26 06:43:41;;;;;;;1.88;1.80;;;8.60;99.90;;;;;;5024261;28;19983;-85
2022/12/26 06:46:11;;;;;;;0.75;0.75;;;8.50;99.90;;;;;;5008069;28;20758;-86
2022/12/26 06:48:38;;;;;;;1.17;1.17;;;8.60;99.90;;;;;;5021364;28;21357;-85
2022/12/26 06:51:11;;;;;;;1.85;1.38;;;8.60;99.90;;;;;;5026228;28;20083;-86
2022/12/26 06:53:37;;;;;;;1.67;1.58;;;8.60;99.90;;;;;;5020217;28;20056;-85
2022/12/26 06:56:06;;;;;;;2.20;2.00;;;8.60;99.90;;;;;;5026417;28;20392;-84
2022/12/26 06:58:32;;;;;;;0.55;0.55;;;8.60;99.90;;;;;;5041763;28;20052;-85
2022/12/26 07:01:09;;;;;;;1.05;1.02;;;8.60;99.90;;;;;;5025201;28;21269;-86
2022/12/26 07:03:35;;;;;;;1.63;1.52;;;8.60;99.90;;;;;;5022854;28;20362;-84
2022/12/26 07:06:03;;;;;;;2.35;1.30;;;8.60;99.90;;;;;;5006277;28;20524;-86
2022/12/26 07:08:28;;;;;;;1.55;1.45;;;8.60;99.90;;;;;;5035187;28;20053;-84
2022/12/26 07:10:54;;;;;;;0.73;0.73;;;8.60;99.90;;;;;;5018229;28;20142;-86
2022/12/26 07:13:20;;;;;;;0.90;0.90;;;8.60;99.90;;;;;;5004273;28;20136;-84
2022/12/26 07:15:45;;;;;;;3.28;2.85;;;8.60;99.90;;;;;;4991277;28;20060;-85
2022/12/26 07:18:11;;;;;;;2.33;2.22;;;8.70;99.90;;;;;;5039827;28;20091;-85
2022/12/26 07:20:37;;;;;;;1.40;1.35;;;8.70;99.90;;;;;;5004487;28;20514;-86
2022/12/26 07:23:03;;;;;;;1.05;1.05;;;8.70;99.90;;;;;;5043655;28;20056;-86
2022/12/26 07:25:28;;;;;;;0.50;0.50;;;8.70;99.90;;;;;;5026927;28;20377;-86
2022/12/26 07:27:54;;;;;;;1.63;1.52;;;8.70;99.90;;;;;;5013990;28;20072;-87
2022/12/26 07:30:20;;;;;;;1.45;1.35;;;8.70;99.90;;;;;;5021406;28;20044;-84
2022/12/26 07:32:46;;;;;;;3.13;1.27;;;8.70;99.90;;;;;;5040407;28;20048;-84
2022/12/26 07:35:11;;;;;;;4.28;3.05;;;8.70;99.90;;;;;;5041352;28;20053;-85
2022/12/26 07:37:37;;;;;;;0.63;0.63;;;8.70;99.90;;;;;;5036414;28;20102;-83
2022/12/26 07:40:03;;;;;;;2.17;1.25;;;8.70;99.90;;;;;;5019176;28;20136;-85
2022/12/26 07:42:29;;;;;;;0.73;0.73;;;8.80;99.90;;;;;;5013162;28;21303;-86
2022/12/26 07:44:55;;;;;;;0.95;0.90;;;8.70;99.90;;;;;;5043847;28;20041;-87
2022/12/26 07:47:20;;;;;;;1.17;0.95;;;8.70;99.90;;;;;;5036789;28;20055;-86
2022/12/26 07:49:46;;;;;;;0.73;0.73;;;8.70;99.90;;;;;;5023964;28;21339;-88
2022/12/26 07:52:15;;;;;;;0.73;0.60;;;8.70;99.90;;;;;;5043584;28;20143;-86
2022/12/26 07:54:41;;;;;;;3.28;1.42;;;8.70;99.90;;;;;;5040927;28;20131;-84
2022/12/26 07:57:06;;;;;;;2.70;2.58;;;8.70;99.90;;;;;;5033090;28;20059;-87
2022/12/26 07:59:32;;;;;;;0.70;0.57;;;8.70;99.90;;;;;;4995983;28;20049;-87
2022/12/26 08:02:04;;;;;;;2.20;1.85;;;8.70;99.90;;;;;;5022543;28;20191;-85
2022/12/26 08:04:33;;;;;;;1.17;1.08;;;8.70;99.90;;;;;;5020713;28;20052;-85
2022/12/26 08:06:59;;;;;;;1.05;1.05;;;8.70;99.90;;;;;;5003800;28;20053;-84
2022/12/26 08:09:25;;;;;;;0.43;0.43;;;8.70;99.90;;;;;;5028129;28;20052;-86
2022/12/26 08:11:50;;;;;;;0.85;0.85;;;8.70;99.90;;;;;;5028326;28;20057;-83
2022/12/26 08:14:16;;;;;;;1.48;1.40;;;8.70;99.90;;;;;;5025819;28;20047;-84
2022/12/26 08:16:43;;;;;;;3.70;1.40;;;8.70;99.90;;;;;;5050342;28;20123;-84
2022/12/26 08:19:09;;;;;;;2.05;1.17;;;8.70;99.90;;;;;;5044120;28;20052;-84
2022/12/26 08:21:35;;;;;;;0.50;0.50;;;8.70;99.90;;;;;;5033131;28;20048;-84
2022/12/26 08:24:01;;;;;;;1.38;1.35;;;8.70;99.90;;;;;;5042311;28;20037;-86
2022/12/26 08:26:27;;;;;;;1.00;1.00;;;8.80;99.90;;;;;;5045792;28;20590;-85
2022/12/26 08:28:54;;;;;;;0.32;0.32;;;8.80;99.90;;;;;;5036247;28;20057;-86
2022/12/26 08:31:20;;;;;;;1.23;0.90;;;8.80;99.90;;;;;;4993704;28;20483;-85
2022/12/26 08:33:46;;;;;;;1.67;1.50;;;8.80;99.90;;;;;;5023227;28;20052;-86
2022/12/26 08:36:15;;;;;;;0.63;0.63;;;8.80;99.90;;;;;;5028404;28;20061;-84
2022/12/26 08:38:41;;;;;;;0.70;0.70;;;8.90;99.90;;;;;;5025472;28;20481;-84
2022/12/26 08:41:07;;;;;;;1.08;0.70;;;8.90;99.90;;;;;;5010208;28;21933;-84
2022/12/26 08:43:34;;;;;;;0.70;0.63;;;8.90;99.90;;;;;;5031041;28;20053;-84
2022/12/26 08:46:07;;;;;;;0.75;0.68;;;8.90;99.90;;;;;;5029088;28;20124;-84
2022/12/26 08:48:34;;;;;;;1.25;1.17;;;8.90;99.90;;;;;;5030820;28;20534;-84
2022/12/26 08:51:11;;;;;;;1.05;1.05;;;8.90;99.90;;;;;;5042769;28;20060;-84
2022/12/26 08:53:36;;;;;;;1.05;1.05;;;8.90;99.90;;;;;;5030744;28;20383;-85
2022/12/26 08:56:04;;;;;;;2.75;2.50;;;8.90;99.90;;;;;;5033031;28;20056;-84
2022/12/26 08:58:30;;;;;;;3.60;0.80;;;8.90;99.90;;;;;;5045403;28;20048;-87
2022/12/26 09:01:09;;;;;;;0.65;0.65;;;8.90;99.90;;;;;;5057111;28;20049;-88
2022/12/26 09:03:35;;;;;;;0.65;0.65;;;8.90;99.90;;;;;;5035451;28;20138;-88
2022/12/26 09:06:01;;;;;;;0.47;0.47;;;8.90;99.90;;;;;;5030618;28;20048;-87
2022/12/26 09:08:29;;;;;;;0.80;0.75;;;8.90;99.90;;;;;;5049115;28;20064;-86
2022/12/26 09:10:55;;;;;;;0.75;0.70;;;8.90;99.90;;;;;;5025662;28;20186;-86
2022/12/26 09:13:22;;;;;;;1.45;1.38;;;8.80;99.90;;;;;;5027379;28;20057;-88
2022/12/26 09:15:47;;;;;;;;;;;8.80;99.90;;;;;;5040288;28;20041;-85
2022/12/26 09:18:13;;;;;;;0.60;0.60;;;8.80;99.90;;;;;;5036669;28;19935;-86
2022/12/26 09:20:39;;;;;;;2.05;1.95;;;8.80;99.90;;;;;;5047356;28;20055;-86
2022/12/26 09:23:06;;;;;;;0.75;0.75;;;8.60;99.90;;;;;;5026589;28;20048;-85
2022/12/26 09:25:31;;;;;;;2.75;0.90;;;8.80;99.90;;;;;;5046148;28;20057;-89
2022/12/26 09:27:57;;;;;;;0.75;0.75;;;8.80;99.90;;;;;;5044442;28;20044;-89
2022/12/26 09:30:23;;;;;;;0.40;0.40;;;8.70;99.90;;;;;;5042327;28;20083;-89
2022/12/26 09:32:49;;;;;;;0.40;0.40;;;8.70;99.90;;;;;;5018296;28;20037;-87
2022/12/26 09:35:14;;;;;;;0.40;0.40;;;8.70;99.90;;;;;;5029644;28;20046;-86
2022/12/26 09:37:40;;;;;;;0.40;0.40;;;8.70;99.90;;;;;;5025145;28;20480;-85
2022/12/26 09:40:30;;;;;;;0.80;0.80;;;8.70;99.90;;;;;;5015174;28;20052;-88
2022/12/26 09:43:04;;;;;;;0.40;0.40;;;8.70;99.90;;;;;;5021775;28;20176;-86
2022/12/26 09:45:46;;;;;;;0.73;0.73;;;8.70;99.90;;;;;;5027974;28;20044;-88
2022/12/26 09:48:25;;;;;;;0.50;0.50;;;8.70;99.90;;;;;;5024109;28;20045;-86
2022/12/26 09:50:51;;;;;;;0.60;0.60;;;9.30;99.90;;;;;;5005283;28;20611;-85
2022/12/26 09:53:24;;;;;;;0.77;0.77;;;8.70;99.90;;;;;;5025184;28;20060;-86
2022/12/26 09:56:01;;;;;;;0.40;0.40;;;8.70;99.90;;;;;;5024077;28;20191;-87
2022/12/26 09:58:51;;;;;;;0.70;0.70;;;8.60;99.90;;;;;;5026718;28;20095;-85
2022/12/26 10:01:19;;;;;;;0.40;0.40;;;8.40;99.90;;;;;;5003338;28;20057;-84
2022/12/26 10:03:48;;;;;;;2.83;0.70;;;8.30;99.90;;;;;;5023207;28;20059;-88
2022/12/26 10:06:16;;;;;;;0.50;0.50;;;8.10;99.90;;;;;;5024443;28;20128;-86
2022/12/26 10:09:00;;;;;;;0.50;0.50;;;8.00;99.90;;;;;;5029438;28;20048;-86
2022/12/26 10:11:32;;;;;;;0.55;0.55;;;7.90;99.90;;;;;;5011399;28;20076;-86
2022/12/26 10:14:16;;;;;;;1.00;1.00;;;7.80;99.90;;;;;;5031986;28;20143;-87
2022/12/26 10:16:51;;;;;;;0.50;0.50;;;7.70;99.90;;;;;;5041309;28;20053;-85
2022/12/26 10:19:47;;;;;;;0.73;0.73;;;7.60;99.90;;;;;;5034245;28;20056;-86
2022/12/26 10:22:28;;;;;;;0.45;0.45;;;7.50;99.90;;;;;;5049612;28;20912;-89
2022/12/26 10:24:57;;;;;;;0.40;0.40;;;6.00;99.90;;;;;;5049432;28;20068;-85
2022/12/26 10:27:26;;;;;;;0.60;0.60;;;7.40;99.90;;;;;;5026273;28;20796;-86
2022/12/26 10:29:57;;;;;;;0.70;0.70;;;7.40;99.90;;;;;;5024582;28;20052;-86
2022/12/26 10:32:38;;;;;;;0.98;0.88;;;7.40;99.90;;;;;;5027824;28;20078;-87
2022/12/26 10:35:16;;;;;;;1.23;1.23;;;7.40;99.90;;;;;;5039728;28;20068;-88
2022/12/26 10:37:42;;;;;;;0.80;0.80;;;7.40;99.90;;;;;;5040155;28;20040;-85
2022/12/26 10:40:08;;;;;;;0.50;0.50;;;7.40;99.90;;;;;;5025124;28;20235;-86
2022/12/26 10:42:40;;;;;;;0.63;0.63;;;7.40;99.90;;;;;;5025116;28;20498;-88
2022/12/26 10:45:36;;;;;;;0.50;0.50;;;7.40;99.90;;;;;;5008357;28;20049;-87
2022/12/26 10:48:03;;;;;;;0.50;0.50;;;7.30;99.90;;;;;;5025430;28;20314;-84
2022/12/26 10:50:31;;;;;;;0.50;0.50;;;7.30;99.90;;;;;;5016702;28;20124;-88
2022/12/26 10:52:58;;;;;;;0.40;0.40;;;7.10;99.90;;;;;;5024878;28;20057;-86
2022/12/26 10:55:31;;;;;;;0.60;0.60;;;7.10;99.90;;;;;;5028493;28;20063;-85
2022/12/26 10:58:02;;;;;;;0.50;0.50;;;7.00;99.90;;;;;;5036318;28;20060;-86
2022/12/26 11:00:29;;;;;;;0.63;0.63;;;6.90;99.90;;;;;;5037807;28;21059;-86
2022/12/26 11:03:05;;;;;;;0.40;0.40;;;6.80;99.90;;;;;;5022771;28;21056;-87
2022/12/26 11:05:32;;;;;;;0.50;0.50;;;6.70;99.90;;;;;;5030305;28;20045;-83
2022/12/26 11:08:21;;;;;;;0.47;0.47;;;6.70;99.90;;;;;;5024582;28;20052;-88
2022/12/26 11:11:08;;;;;;;6.25;0.93;;;6.60;99.90;;;;;;5021279;28;20168;-86
2022/12/26 11:13:53;;;;;;;0.60;0.60;;;6.50;99.90;;;;;;5033554;28;20379;-87
2022/12/26 11:16:26;;;;;;;0.50;0.50;;;6.40;99.90;;;;;;5028758;28;20127;-86
2022/12/26 11:18:52;;;;;;;0.35;0.35;;;6.30;99.90;;;;;;5043949;28;20048;-88
2022/12/26 11:21:18;;;;;;;0.40;0.40;;;6.30;99.90;;;;;;5040017;28;20044;-87
2022/12/26 11:23:48;;;;;;;0.50;0.50;;;6.30;99.90;;;;;;5042003;28;20049;-84
2022/12/26 11:26:24;;;;;;;0.60;0.60;;;6.40;99.90;;;;;;5033594;28;20057;-85
2022/12/26 11:29:11;;;;;;;0.40;0.40;;;6.50;99.90;;;;;;5033007;28;20125;-85
2022/12/26 11:31:40;;;;;;;0.47;0.47;;;6.50;99.90;;;;;;5030178;28;21594;-86
2022/12/26 11:34:16;;;;;;;0.60;0.60;;;6.60;99.90;;;;;;5030968;28;20484;-86
2022/12/26 11:36:50;;;;;;;0.57;0.57;;;6.60;99.90;;;;;;5037140;28;20076;-85
2022/12/26 11:39:23;;;;;;;0.50;0.50;;;6.60;99.90;;;;;;5032902;28;20126;-88
2022/12/26 11:41:50;;;;;;;0.50;0.50;;;6.60;99.90;;;;;;5022352;28;20056;-86
2022/12/26 11:44:23;;;;;;;0.50;0.50;;;6.60;99.90;;;;;;5024767;28;20191;-86
2022/12/26 11:47:09;;;;;;;0.50;0.50;;;6.60;99.90;;;;;;5022523;28;20057;-86
2022/12/26 11:49:37;;;;;;;0.60;0.60;;;6.50;99.90;;;;;;5027076;28;20060;-87
2022/12/26 11:52:28;;;;;;;0.50;0.50;;;6.50;99.90;;;;;;5039492;28;20060;-87
2022/12/26 11:54:54;;;;;;;0.50;0.50;;;6.30;99.90;;;;;;5039257;28;20511;-87
2022/12/26 11:57:29;;;;;;;0.50;0.50;;;6.60;99.90;;;;;;5024020;28;20052;-86
2022/12/26 12:00:13;;;;;;;0.88;0.88;;;6.60;99.90;;;;;;5040647;28;20114;-86
2022/12/26 12:02:40;;;;;;;0.50;0.50;;;6.50;99.90;;;;;;5022423;28;20763;-87
2022/12/26 12:05:26;;;;;;;0.60;0.60;;;6.60;99.90;;;;;;5035432;28;20037;-86
2022/12/26 12:07:52;;;;;;;0.50;0.50;;;6.60;99.90;;;;;;5048307;28;20517;-87
2022/12/26 12:10:46;;;;;;;0.50;0.50;;;6.60;99.90;;;;;;5038963;28;20045;-86
2022/12/26 12:13:35;;;;;;;0.50;0.50;;;6.70;99.90;;;;;;5036770;28;20064;-85
2022/12/26 12:16:33;;;;;;;0.50;0.50;;;6.70;99.90;;;;;;5051983;28;20052;-88
2022/12/26 12:19:30;;;;;;;0.50;0.50;;;7.00;99.90;;;;;;5017935;28;20067;-86
2022/12/26 12:22:08;;;;;;;0.57;0.57;;;6.80;99.90;;;;;;5042902;28;20041;-87
2022/12/26 12:24:39;;;;;;;0.45;0.45;;;6.80;99.90;;;;;;5043783;28;20144;-87
2022/12/26 12:27:08;;;;;;;1.50;1.48;;;6.80;99.90;;;;;;5040907;28;20196;-88
2022/12/26 12:30:20;;;;;;;0.55;0.55;;;6.80;99.90;;;;;;5027807;28;20045;-88
2022/12/26 12:32:58;;;;;;;0.60;0.60;;;6.90;99.90;;;;;;5025569;28;20072;-86
2022/12/26 12:35:51;;;;;;;0.60;0.60;;;6.80;99.90;;;;;;5033736;28;20399;-89
2022/12/26 12:38:45;;;;;;;0.45;0.45;;;6.80;99.90;;;;;;5051013;28;20072;-86
2022/12/26 12:41:30;;;;;;;0.50;0.50;;;6.80;99.90;;;;;;5032075;28;20044;-86
2022/12/26 12:44:13;;;;;;;0.50;0.50;;;6.80;99.90;;;;;;5036780;28;20615;-87
2022/12/26 12:46:41;;;;;;;0.60;0.60;;;6.80;99.90;;;;;;5026942;28;20088;-87
2022/12/26 12:49:36;;;;;;;0.60;0.60;;;6.80;99.90;;;;;;5030626;28;20481;-86
2022/12/26 12:52:31;;;;;;;0.50;0.50;;;6.80;99.90;;;;;;5022370;28;20045;-87
2022/12/26 12:55:18;;;;;;;0.50;0.50;;;6.80;99.90;;;;;;5020464;28;20047;-88
2022/12/26 12:58:06;;;;;;;0.50;0.50;;;6.70;99.90;;;;;;5057692;28;20329;-89
2022/12/26 13:00:49;;;;;;;0.68;0.68;;;6.70;99.90;;;;;;5054852;28;20053;-86
2022/12/26 13:03:31;;;;;;;0.50;0.50;;;6.70;99.90;;;;;;5054291;28;20095;-85
2022/12/26 13:06:05;;;;;;;0.50;0.50;;;6.70;99.90;;;;;;5043892;28;20051;-87
2022/12/26 13:08:36;;;;;;;0.50;0.50;;;6.60;99.90;;;;;;5046804;28;20049;-87
2022/12/26 13:11:07;;;;;;;2.03;1.92;;;6.70;99.90;;;;;;5040378;28;20144;-87
2022/12/26 13:13:39;;;;;;;0.50;0.50;;;6.60;99.90;;;;;;5040007;28;20411;-86
2022/12/26 13:16:23;;;;;;;0.57;0.57;;;6.60;99.90;;;;;;5040831;28;20052;-87
2022/12/26 13:19:03;;;;;;;0.50;0.50;;;6.60;99.90;;;;;;5049056;28;20053;-86
2022/12/26 13:21:33;;;;;;;1.88;1.77;;;6.70;99.90;;;;;;5039083;28;20049;-86
2022/12/26 13:24:23;;;;;;;0.50;0.50;;;6.70;99.90;;;;;;5035820;28;20045;-86
2022/12/26 13:27:04;;;;;;;0.98;0.98;;;6.80;99.90;;;;;;5030557;28;20056;-86
2022/12/26 13:29:38;;;;;;;0.45;0.45;;;6.80;99.90;;;;;;5025510;28;20084;-87
2022/12/26 13:32:16;;;;;;;0.60;0.60;;;6.90;99.90;;;;;;5027132;28;20507;-87
2022/12/26 13:34:43;;;;;;;0.50;0.50;;;6.90;99.90;;;;;;5023561;28;20051;-85
2022/12/26 13:37:38;;;;;;;1.65;1.40;;;6.90;99.90;;;;;;5027471;28;20048;-87
2022/12/26 13:40:09;;;;;;;0.55;0.55;;;6.90;99.90;;;;;;5030457;28;20077;-85
2022/12/26 13:45:38;;;;;;;0.38;0.38;;;7.10;99.90;;;;;;5025713;28;20535;-85
2022/12/26 13:48:16;;;;;;;0.50;0.50;;;7.00;99.90;;;;;;5004163;28;20383;-86
2022/12/26 13:50:56;;;;;;;0.38;0.38;;;6.90;99.90;;;;;;5018879;28;20041;-86
2022/12/26 13:53:25;;;;;;;0.50;0.50;;;6.80;99.90;;;;;;5005874;28;20136;-86
2022/12/26 13:55:52;;;;;;;0.70;0.70;;;6.70;99.90;;;;;;5005433;28;20048;-86
2022/12/26 13:58:55;;;;;;;0.43;0.43;;;6.60;99.90;;;;;;5022279;28;20676;-86
2022/12/26 14:01:36;;;;;;;0.60;0.60;;;6.50;99.90;;;;;;5017668;28;20132;-85
2022/12/26 14:04:14;;;;;;;0.60;0.60;;;6.50;99.90;;;;;;5005642;28;20111;-86
2022/12/26 14:07:12;;;;;;;0.65;0.65;;;6.40;99.90;;;;;;5025244;28;20079;-86
2022/12/26 14:09:49;;;;;;;0.55;0.55;;;6.40;99.90;;;;;;5030684;28;20049;-87
2022/12/26 14:12:27;;;;;;;0.60;0.60;;;6.50;99.90;;;;;;5049078;28;20049;-85
2022/12/26 14:15:18;;;;;;;0.60;0.60;;;6.60;99.90;;;;;;5043309;28;20049;-88
2022/12/26 14:18:25;;;;;;;0.90;0.90;;;6.70;99.90;;;;;;5043321;28;20127;-86
2022/12/26 14:21:09;;;;;;;0.63;0.63;;;6.70;99.90;;;;;;4984917;28;20134;-86
2022/12/26 14:24:05;;;;;;;0.60;0.60;;;6.70;99.90;;;;;;5027674;28;20056;-87
2022/12/26 14:26:49;;;;;;;0.63;0.63;;;6.70;99.90;;;;;;5028225;28;20543;-85
2022/12/26 14:29:39;;;;;;;0.77;0.77;;;6.70;99.90;;;;;;5092676;27;20723;-80
2022/12/26 14:32:24;;;;;;;0.50;0.50;;;6.70;99.90;;;;;;5076643;28;20056;-78
2022/12/26 14:35:09;;;;;;;0.55;0.55;;;6.50;99.90;;;;;;5076826;28;20040;-79
2022/12/26 14:38:12;;;;;;;0.65;0.65;;;6.40;99.90;;;;;;5075684;28;20480;-80
2022/12/26 14:40:55;;;;;;;0.40;0.40;;;6.30;99.90;;;;;;5083375;28;20056;-77
2022/12/26 14:43:30;;;;;;;0.80;0.80;;;6.20;99.90;;;;;;5072225;28;20076;-79
2022/12/26 14:45:57;;;;;;;0.52;0.52;;;6.10;99.90;;;;;;5081269;28;20620;-80
2022/12/26 14:48:22;;;;;;;0.50;0.50;;;6.00;99.90;;;;;;5060320;28;20123;-81
2022/12/26 14:50:53;;;;;;;0.50;0.50;;;6.00;99.90;;;;;;5085394;28;20088;-86
2022/12/26 14:53:26;;;;;;;0.60;0.60;;;5.90;99.90;;;;;;5071283;28;21527;-81
2022/12/26 14:56:15;;;;;;;0.60;0.60;;;5.90;99.90;;;;;;5079985;28;20043;-82
2022/12/26 14:58:45;;;;;;;0.60;0.60;;;5.80;99.90;;;;;;5073441;28;20044;-83
2022/12/26 15:01:11;;;;;;;0.60;0.60;;;5.80;99.90;;;;;;5105060;27;20125;-82
2022/12/26 15:04:08;;;;;;;0.60;0.60;;;5.80;99.90;;;;;;5080862;28;20400;-82
2022/12/26 15:07:03;;;;;;;0.60;0.60;;;5.80;99.90;;;;;;5079865;28;20059;-82
2022/12/26 15:09:41;;;;;;;0.60;0.60;;;5.80;99.90;;;;;;5063783;28;20397;-83
2022/12/26 15:12:50;;;;;;;0.63;0.63;;;5.80;99.90;;;;;;5064901;28;20052;-82
2022/12/26 15:15:33;;;;;;;0.55;0.55;;;5.70;99.90;;;;;;5080796;28;20405;-80
2022/12/26 15:18:17;;;;;;;0.60;0.60;;;5.50;99.90;;;;;;5083970;28;20035;-83
2022/12/26 15:20:55;;;;;;;0.60;0.60;;;5.50;99.90;;;;;;5068304;28;20086;-82
2022/12/26 15:23:52;;;;;;;0.70;0.70;;;5.60;99.90;;;;;;5088083;28;20421;-82
2022/12/26 15:26:39;;;;;;;0.50;0.50;;;5.50;99.90;;;;;;5067782;28;20048;-82
2022/12/26 15:29:24;;;;;;;0.50;0.50;;;5.50;99.90;;;;;;5082777;28;20112;-82
2022/12/26 15:32:09;;;;;;;0.70;0.70;;;5.40;99.90;;;;;;5080892;28;20039;-81
2022/12/26 15:35:04;;;;;;;0.52;0.52;;;5.40;99.90;;;;;;5084940;28;20043;-84
2022/12/26 15:38:06;;;;;;;1.08;1.08;;;5.30;99.90;;;;;;5065176;28;20105;-82
2022/12/26 15:41:09;;;;;;;14.20;4.97;;;5.30;99.90;;;;;;5071067;28;20120;-81
2022/12/26 15:43:53;;;;;;;2.30;1.10;;;5.30;99.90;;;;;;5068812;28;20652;-82